sensor_id;sensor_type;location;lat;lon;timestamp;P1;durP1;ratioP1;P2;durP2;ratioP2
74291;SDS011;62687;55.738;37.516;2023-07-30T00:00:23;13.13;;;5.55;;
74291;SDS011;62687;55.738;37.516;2023-07-30T00:03:07;11.07;;;5.80;;
74291;SDS011;62687;55.738;37.516;2023-07-30T00:05:54;18.02;;;6.38;;
74291;SDS011;62687;55.738;37.516;2023-07-30T00:08:38;11.43;;;5.53;;
74291;SDS011;62687;55.738;37.516;2023-07-30T00:11:22;13.88;;;5.88;;
74291;SDS011;62687;55.738;37.516;2023-07-30T00:14:06;9.60;;;5.10;;
74291;SDS011;62687;55.738;37.516;2023-07-30T00:16:50;11.02;;;5.40;;
74291;SDS011;62687;55.738;37.516;2023-07-30T00:19:34;13.50;;;5.35;;
74291;SDS011;62687;55.738;37.516;2023-07-30T00:22:19;13.32;;;5.43;;
74291;SDS011;62687;55.738;37.516;2023-07-30T00:25:03;10.02;;;5.43;;
74291;SDS011;62687;55.738;37.516;2023-07-30T00:27:47;12.50;;;5.88;;
74291;SDS011;62687;55.738;37.516;2023-07-30T00:30:31;11.68;;;6.05;;
74291;SDS011;62687;55.738;37.516;2023-07-30T00:33:15;16.63;;;5.75;;
74291;SDS011;62687;55.738;37.516;2023-07-30T00:35:59;12.30;;;5.85;;
74291;SDS011;62687;55.738;37.516;2023-07-30T00:38:42;10.65;;;6.10;;
74291;SDS011;62687;55.738;37.516;2023-07-30T00:41:26;14.32;;;6.20;;
74291;SDS011;62687;55.738;37.516;2023-07-30T00:44:10;16.80;;;7.00;;
74291;SDS011;62687;55.738;37.516;2023-07-30T00:46:54;14.10;;;6.43;;
74291;SDS011;62687;55.738;37.516;2023-07-30T00:49:38;11.98;;;6.75;;
74291;SDS011;62687;55.738;37.516;2023-07-30T00:52:23;13.98;;;6.80;;
74291;SDS011;62687;55.738;37.516;2023-07-30T00:55:08;15.20;;;6.10;;
74291;SDS011;62687;55.738;37.516;2023-07-30T00:57:52;12.18;;;5.95;;
74291;SDS011;62687;55.738;37.516;2023-07-30T01:00:36;11.35;;;5.72;;
74291;SDS011;62687;55.738;37.516;2023-07-30T01:03:20;11.57;;;6.07;;
74291;SDS011;62687;55.738;37.516;2023-07-30T01:06:04;11.80;;;6.68;;
74291;SDS011;62687;55.738;37.516;2023-07-30T01:08:48;10.45;;;6.53;;
74291;SDS011;62687;55.738;37.516;2023-07-30T01:11:32;14.95;;;6.72;;
74291;SDS011;62687;55.738;37.516;2023-07-30T01:14:17;9.93;;;5.78;;
74291;SDS011;62687;55.738;37.516;2023-07-30T01:17:02;12.85;;;6.50;;
74291;SDS011;62687;55.738;37.516;2023-07-30T01:19:46;12.02;;;7.03;;
74291;SDS011;62687;55.738;37.516;2023-07-30T01:22:33;12.35;;;6.28;;
74291;SDS011;62687;55.738;37.516;2023-07-30T01:25:17;12.65;;;6.22;;
74291;SDS011;62687;55.738;37.516;2023-07-30T01:28:01;10.95;;;6.72;;
74291;SDS011;62687;55.738;37.516;2023-07-30T01:30:48;14.88;;;6.00;;
74291;SDS011;62687;55.738;37.516;2023-07-30T01:33:33;14.80;;;6.43;;
74291;SDS011;62687;55.738;37.516;2023-07-30T01:36:17;11.48;;;6.13;;
74291;SDS011;62687;55.738;37.516;2023-07-30T01:39:02;9.55;;;6.63;;
74291;SDS011;62687;55.738;37.516;2023-07-30T01:41:45;11.45;;;6.47;;
74291;SDS011;62687;55.738;37.516;2023-07-30T01:44:29;14.10;;;6.43;;
74291;SDS011;62687;55.738;37.516;2023-07-30T01:47:13;11.30;;;6.43;;
74291;SDS011;62687;55.738;37.516;2023-07-30T01:49:57;9.82;;;6.22;;
74291;SDS011;62687;55.738;37.516;2023-07-30T01:52:41;15.05;;;6.60;;
74291;SDS011;62687;55.738;37.516;2023-07-30T01:55:25;15.70;;;7.15;;
74291;SDS011;62687;55.738;37.516;2023-07-30T01:58:09;11.05;;;6.65;;
74291;SDS011;62687;55.738;37.516;2023-07-30T02:00:53;11.02;;;6.38;;
74291;SDS011;62687;55.738;37.516;2023-07-30T02:03:37;11.25;;;6.57;;
74291;SDS011;62687;55.738;37.516;2023-07-30T02:06:21;12.77;;;6.10;;
74291;SDS011;62687;55.738;37.516;2023-07-30T02:09:05;14.35;;;6.45;;
74291;SDS011;62687;55.738;37.516;2023-07-30T02:11:49;11.85;;;6.95;;
74291;SDS011;62687;55.738;37.516;2023-07-30T02:14:33;9.85;;;6.20;;
74291;SDS011;62687;55.738;37.516;2023-07-30T02:17:17;13.02;;;6.68;;
74291;SDS011;62687;55.738;37.516;2023-07-30T02:20:02;13.98;;;6.20;;
74291;SDS011;62687;55.738;37.516;2023-07-30T02:22:51;11.00;;;6.20;;
74291;SDS011;62687;55.738;37.516;2023-07-30T02:25:41;12.18;;;6.80;;
74291;SDS011;62687;55.738;37.516;2023-07-30T02:28:36;10.20;;;6.38;;
74291;SDS011;62687;55.738;37.516;2023-07-30T02:31:22;13.68;;;6.35;;
74291;SDS011;62687;55.738;37.516;2023-07-30T02:34:13;13.45;;;6.13;;
74291;SDS011;62687;55.738;37.516;2023-07-30T02:37:08;14.95;;;7.10;;
74291;SDS011;62687;55.738;37.516;2023-07-30T02:39:55;10.20;;;6.03;;
74291;SDS011;62687;55.738;37.516;2023-07-30T02:42:50;11.13;;;6.03;;
74291;SDS011;62687;55.738;37.516;2023-07-30T02:45:38;10.35;;;5.65;;
74291;SDS011;62687;55.738;37.516;2023-07-30T02:48:37;11.10;;;5.88;;
74291;SDS011;62687;55.738;37.516;2023-07-30T02:51:23;11.40;;;5.93;;
74291;SDS011;62687;55.738;37.516;2023-07-30T02:54:10;11.52;;;5.22;;
74291;SDS011;62687;55.738;37.516;2023-07-30T02:56:56;8.73;;;5.57;;
74291;SDS011;62687;55.738;37.516;2023-07-30T02:59:42;12.32;;;5.80;;
74291;SDS011;62687;55.738;37.516;2023-07-30T03:02:34;12.02;;;5.75;;
74291;SDS011;62687;55.738;37.516;2023-07-30T03:05:19;12.55;;;5.60;;
74291;SDS011;62687;55.738;37.516;2023-07-30T03:08:09;9.45;;;5.60;;
74291;SDS011;62687;55.738;37.516;2023-07-30T03:10:58;10.98;;;5.20;;
74291;SDS011;62687;55.738;37.516;2023-07-30T03:13:44;8.98;;;5.28;;
74291;SDS011;62687;55.738;37.516;2023-07-30T03:16:28;9.95;;;5.60;;
74291;SDS011;62687;55.738;37.516;2023-07-30T03:19:14;9.13;;;5.18;;
74291;SDS011;62687;55.738;37.516;2023-07-30T03:22:01;7.70;;;4.97;;
74291;SDS011;62687;55.738;37.516;2023-07-30T03:24:48;10.38;;;4.60;;
74291;SDS011;62687;55.738;37.516;2023-07-30T03:27:32;6.75;;;5.03;;
74291;SDS011;62687;55.738;37.516;2023-07-30T03:30:16;9.70;;;4.68;;
74291;SDS011;62687;55.738;37.516;2023-07-30T03:33:00;11.18;;;5.00;;
74291;SDS011;62687;55.738;37.516;2023-07-30T03:35:44;7.82;;;4.72;;
74291;SDS011;62687;55.738;37.516;2023-07-30T03:38:28;8.10;;;4.53;;
74291;SDS011;62687;55.738;37.516;2023-07-30T03:41:12;10.52;;;4.43;;
74291;SDS011;62687;55.738;37.516;2023-07-30T03:43:55;11.00;;;5.40;;
74291;SDS011;62687;55.738;37.516;2023-07-30T03:46:39;7.32;;;4.30;;
74291;SDS011;62687;55.738;37.516;2023-07-30T03:49:23;7.93;;;4.82;;
74291;SDS011;62687;55.738;37.516;2023-07-30T03:52:07;11.70;;;4.75;;
74291;SDS011;62687;55.738;37.516;2023-07-30T03:54:51;7.60;;;4.05;;
74291;SDS011;62687;55.738;37.516;2023-07-30T03:57:35;8.68;;;4.28;;
74291;SDS011;62687;55.738;37.516;2023-07-30T04:00:19;6.72;;;4.07;;
74291;SDS011;62687;55.738;37.516;2023-07-30T04:03:03;6.85;;;4.32;;
74291;SDS011;62687;55.738;37.516;2023-07-30T04:05:47;7.50;;;4.05;;
74291;SDS011;62687;55.738;37.516;2023-07-30T04:08:31;5.35;;;3.75;;
74291;SDS011;62687;55.738;37.516;2023-07-30T04:11:15;6.85;;;3.45;;
74291;SDS011;62687;55.738;37.516;2023-07-30T04:13:59;7.15;;;3.97;;
74291;SDS011;62687;55.738;37.516;2023-07-30T04:16:43;6.57;;;3.90;;
74291;SDS011;62687;55.738;37.516;2023-07-30T04:19:30;7.35;;;3.47;;
74291;SDS011;62687;55.738;37.516;2023-07-30T04:22:14;8.35;;;3.92;;
74291;SDS011;62687;55.738;37.516;2023-07-30T04:24:58;6.55;;;3.63;;
74291;SDS011;62687;55.738;37.516;2023-07-30T04:27:42;12.30;;;3.53;;
74291;SDS011;62687;55.738;37.516;2023-07-30T04:30:26;6.68;;;3.58;;
74291;SDS011;62687;55.738;37.516;2023-07-30T04:33:10;7.60;;;3.35;;
74291;SDS011;62687;55.738;37.516;2023-07-30T04:35:54;5.57;;;3.40;;
74291;SDS011;62687;55.738;37.516;2023-07-30T04:38:38;6.07;;;3.20;;
74291;SDS011;62687;55.738;37.516;2023-07-30T04:41:22;8.93;;;3.83;;
74291;SDS011;62687;55.738;37.516;2023-07-30T04:44:06;7.15;;;3.15;;
74291;SDS011;62687;55.738;37.516;2023-07-30T04:46:49;5.88;;;2.60;;
74291;SDS011;62687;55.738;37.516;2023-07-30T04:49:33;5.95;;;2.72;;
74291;SDS011;62687;55.738;37.516;2023-07-30T04:52:18;6.18;;;2.88;;
74291;SDS011;62687;55.738;37.516;2023-07-30T04:55:02;6.80;;;3.00;;
74291;SDS011;62687;55.738;37.516;2023-07-30T04:57:46;5.68;;;2.85;;
74291;SDS011;62687;55.738;37.516;2023-07-30T05:00:30;4.03;;;2.50;;
74291;SDS011;62687;55.738;37.516;2023-07-30T05:03:14;6.70;;;2.60;;
74291;SDS011;62687;55.738;37.516;2023-07-30T05:05:58;5.88;;;2.08;;
74291;SDS011;62687;55.738;37.516;2023-07-30T05:08:42;6.38;;;2.40;;
74291;SDS011;62687;55.738;37.516;2023-07-30T05:11:26;6.57;;;2.30;;
74291;SDS011;62687;55.738;37.516;2023-07-30T05:14:10;4.72;;;2.20;;
74291;SDS011;62687;55.738;37.516;2023-07-30T05:16:54;5.22;;;2.35;;
74291;SDS011;62687;55.738;37.516;2023-07-30T05:19:38;3.97;;;2.50;;
74291;SDS011;62687;55.738;37.516;2023-07-30T05:22:22;6.53;;;2.30;;
74291;SDS011;62687;55.738;37.516;2023-07-30T05:25:06;4.13;;;2.30;;
74291;SDS011;62687;55.738;37.516;2023-07-30T05:27:50;4.75;;;2.42;;
74291;SDS011;62687;55.738;37.516;2023-07-30T05:30:34;4.88;;;2.13;;
74291;SDS011;62687;55.738;37.516;2023-07-30T05:33:18;6.45;;;2.47;;
74291;SDS011;62687;55.738;37.516;2023-07-30T05:36:02;7.18;;;2.28;;
74291;SDS011;62687;55.738;37.516;2023-07-30T05:38:46;4.10;;;2.00;;
74291;SDS011;62687;55.738;37.516;2023-07-30T05:41:30;4.82;;;2.17;;
74291;SDS011;62687;55.738;37.516;2023-07-30T05:44:14;3.83;;;2.50;;
74291;SDS011;62687;55.738;37.516;2023-07-30T05:46:58;5.63;;;2.22;;
74291;SDS011;62687;55.738;37.516;2023-07-30T05:49:42;4.82;;;2.08;;
74291;SDS011;62687;55.738;37.516;2023-07-30T05:52:26;4.13;;;2.60;;
74291;SDS011;62687;55.738;37.516;2023-07-30T05:55:10;6.63;;;2.60;;
74291;SDS011;62687;55.738;37.516;2023-07-30T05:57:54;3.30;;;2.33;;
74291;SDS011;62687;55.738;37.516;2023-07-30T06:00:39;5.35;;;1.77;;
74291;SDS011;62687;55.738;37.516;2023-07-30T06:03:23;5.85;;;2.45;;
74291;SDS011;62687;55.738;37.516;2023-07-30T06:06:07;5.30;;;2.40;;
74291;SDS011;62687;55.738;37.516;2023-07-30T06:08:51;4.57;;;2.10;;
74291;SDS011;62687;55.738;37.516;2023-07-30T06:11:35;5.88;;;2.53;;
74291;SDS011;62687;55.738;37.516;2023-07-30T06:14:19;5.57;;;2.13;;
74291;SDS011;62687;55.738;37.516;2023-07-30T06:17:03;4.10;;;2.15;;
74291;SDS011;62687;55.738;37.516;2023-07-30T06:19:47;9.05;;;2.30;;
74291;SDS011;62687;55.738;37.516;2023-07-30T06:22:31;6.35;;;2.50;;
74291;SDS011;62687;55.738;37.516;2023-07-30T06:25:14;7.07;;;2.50;;
74291;SDS011;62687;55.738;37.516;2023-07-30T06:27:58;5.00;;;2.60;;
74291;SDS011;62687;55.738;37.516;2023-07-30T06:30:42;6.18;;;2.63;;
74291;SDS011;62687;55.738;37.516;2023-07-30T06:33:26;3.75;;;2.20;;
74291;SDS011;62687;55.738;37.516;2023-07-30T06:36:10;6.57;;;2.70;;
74291;SDS011;62687;55.738;37.516;2023-07-30T06:38:54;5.75;;;2.28;;
74291;SDS011;62687;55.738;37.516;2023-07-30T06:41:38;4.78;;;2.60;;
74291;SDS011;62687;55.738;37.516;2023-07-30T06:44:23;3.67;;;2.05;;
74291;SDS011;62687;55.738;37.516;2023-07-30T06:47:08;6.00;;;2.30;;
74291;SDS011;62687;55.738;37.516;2023-07-30T06:49:52;5.53;;;2.15;;
74291;SDS011;62687;55.738;37.516;2023-07-30T06:52:36;6.30;;;2.20;;
74291;SDS011;62687;55.738;37.516;2023-07-30T06:55:20;5.05;;;2.08;;
74291;SDS011;62687;55.738;37.516;2023-07-30T06:58:04;3.75;;;2.00;;
74291;SDS011;62687;55.738;37.516;2023-07-30T07:00:49;7.45;;;2.03;;
74291;SDS011;62687;55.738;37.516;2023-07-30T07:03:33;5.95;;;1.90;;
74291;SDS011;62687;55.738;37.516;2023-07-30T07:06:17;6.25;;;2.08;;
74291;SDS011;62687;55.738;37.516;2023-07-30T07:09:01;5.65;;;2.38;;
74291;SDS011;62687;55.738;37.516;2023-07-30T07:11:45;4.32;;;1.90;;
74291;SDS011;62687;55.738;37.516;2023-07-30T07:14:29;4.82;;;1.65;;
74291;SDS011;62687;55.738;37.516;2023-07-30T07:17:13;4.63;;;1.50;;
74291;SDS011;62687;55.738;37.516;2023-07-30T07:19:57;12.82;;;2.08;;
74291;SDS011;62687;55.738;37.516;2023-07-30T07:22:41;6.55;;;3.25;;
74291;SDS011;62687;55.738;37.516;2023-07-30T07:25:25;6.68;;;2.90;;
74291;SDS011;62687;55.738;37.516;2023-07-30T07:28:09;5.43;;;2.10;;
74291;SDS011;62687;55.738;37.516;2023-07-30T07:30:54;5.78;;;2.85;;
74291;SDS011;62687;55.738;37.516;2023-07-30T07:33:38;5.13;;;1.70;;
74291;SDS011;62687;55.738;37.516;2023-07-30T07:36:22;3.45;;;1.90;;
74291;SDS011;62687;55.738;37.516;2023-07-30T07:39:05;5.03;;;2.10;;
74291;SDS011;62687;55.738;37.516;2023-07-30T07:41:50;4.43;;;1.60;;
74291;SDS011;62687;55.738;37.516;2023-07-30T07:44:34;4.68;;;1.65;;
74291;SDS011;62687;55.738;37.516;2023-07-30T07:47:18;5.47;;;2.13;;
74291;SDS011;62687;55.738;37.516;2023-07-30T07:50:02;5.13;;;1.65;;
74291;SDS011;62687;55.738;37.516;2023-07-30T07:52:46;3.20;;;1.65;;
74291;SDS011;62687;55.738;37.516;2023-07-30T07:55:30;8.25;;;2.97;;
74291;SDS011;62687;55.738;37.516;2023-07-30T07:58:14;6.00;;;1.77;;
74291;SDS011;62687;55.738;37.516;2023-07-30T08:00:58;3.67;;;1.80;;
74291;SDS011;62687;55.738;37.516;2023-07-30T08:03:42;6.10;;;2.03;;
74291;SDS011;62687;55.738;37.516;2023-07-30T08:06:26;5.38;;;1.52;;
74291;SDS011;62687;55.738;37.516;2023-07-30T08:09:10;3.85;;;1.75;;
74291;SDS011;62687;55.738;37.516;2023-07-30T08:11:54;3.70;;;1.50;;
74291;SDS011;62687;55.738;37.516;2023-07-30T08:14:38;2.78;;;1.30;;
74291;SDS011;62687;55.738;37.516;2023-07-30T08:17:22;3.83;;;1.55;;
74291;SDS011;62687;55.738;37.516;2023-07-30T08:20:06;4.43;;;1.80;;
74291;SDS011;62687;55.738;37.516;2023-07-30T08:22:50;8.13;;;1.50;;
74291;SDS011;62687;55.738;37.516;2023-07-30T08:25:34;3.53;;;1.60;;
74291;SDS011;62687;55.738;37.516;2023-07-30T08:28:18;4.50;;;1.60;;
74291;SDS011;62687;55.738;37.516;2023-07-30T08:31:02;4.50;;;1.58;;
74291;SDS011;62687;55.738;37.516;2023-07-30T08:33:47;4.45;;;1.65;;
74291;SDS011;62687;55.738;37.516;2023-07-30T08:36:30;6.65;;;1.40;;
74291;SDS011;62687;55.738;37.516;2023-07-30T08:39:14;3.70;;;1.52;;
74291;SDS011;62687;55.738;37.516;2023-07-30T08:41:58;7.57;;;1.80;;
74291;SDS011;62687;55.738;37.516;2023-07-30T08:44:43;3.30;;;1.80;;
74291;SDS011;62687;55.738;37.516;2023-07-30T08:47:26;2.38;;;1.10;;
74291;SDS011;62687;55.738;37.516;2023-07-30T08:50:10;2.88;;;1.27;;
74291;SDS011;62687;55.738;37.516;2023-07-30T08:52:55;3.45;;;1.45;;
74291;SDS011;62687;55.738;37.516;2023-07-30T08:58:23;3.58;;;1.55;;
74291;SDS011;62687;55.738;37.516;2023-07-30T09:01:09;5.78;;;1.52;;
74291;SDS011;62687;55.738;37.516;2023-07-30T09:03:54;9.52;;;1.73;;
74291;SDS011;62687;55.738;37.516;2023-07-30T09:09:22;3.97;;;1.85;;
74291;SDS011;62687;55.738;37.516;2023-07-30T09:12:12;4.47;;;1.60;;
74291;SDS011;62687;55.738;37.516;2023-07-30T09:14:56;5.75;;;1.45;;
74291;SDS011;62687;55.738;37.516;2023-07-30T09:17:40;2.97;;;1.30;;
74291;SDS011;62687;55.738;37.516;2023-07-30T09:20:24;4.80;;;1.50;;
74291;SDS011;62687;55.738;37.516;2023-07-30T09:23:08;4.80;;;1.70;;
74291;SDS011;62687;55.738;37.516;2023-07-30T09:25:53;2.47;;;1.23;;
74291;SDS011;62687;55.738;37.516;2023-07-30T09:28:41;4.10;;;1.88;;
74291;SDS011;62687;55.738;37.516;2023-07-30T09:31:25;3.53;;;1.30;;
74291;SDS011;62687;55.738;37.516;2023-07-30T09:34:09;2.47;;;1.30;;
74291;SDS011;62687;55.738;37.516;2023-07-30T09:36:53;2.17;;;1.60;;
74291;SDS011;62687;55.738;37.516;2023-07-30T09:42:22;3.03;;;1.50;;
74291;SDS011;62687;55.738;37.516;2023-07-30T09:45:16;4.82;;;1.60;;
74291;SDS011;62687;55.738;37.516;2023-07-30T09:47:52;3.70;;;1.55;;
74291;SDS011;62687;55.738;37.516;2023-07-30T09:50:37;7.03;;;1.30;;
74291;SDS011;62687;55.738;37.516;2023-07-30T09:53:21;3.80;;;1.52;;
74291;SDS011;62687;55.738;37.516;2023-07-30T09:56:05;6.75;;;1.98;;
74291;SDS011;62687;55.738;37.516;2023-07-30T09:58:52;3.10;;;1.50;;
74291;SDS011;62687;55.738;37.516;2023-07-30T10:01:38;5.30;;;1.48;;
74291;SDS011;62687;55.738;37.516;2023-07-30T10:04:23;2.20;;;1.30;;
74291;SDS011;62687;55.738;37.516;2023-07-30T10:07:10;4.85;;;1.38;;
74291;SDS011;62687;55.738;37.516;2023-07-30T10:09:57;5.30;;;1.30;;
74291;SDS011;62687;55.738;37.516;2023-07-30T10:12:42;5.00;;;1.48;;
74291;SDS011;62687;55.738;37.516;2023-07-30T10:15:27;7.53;;;1.77;;
74291;SDS011;62687;55.738;37.516;2023-07-30T10:18:11;3.58;;;1.83;;
74291;SDS011;62687;55.738;37.516;2023-07-30T10:20:55;5.60;;;2.70;;
74291;SDS011;62687;55.738;37.516;2023-07-30T10:23:47;2.90;;;1.20;;
74291;SDS011;62687;55.738;37.516;2023-07-30T10:26:34;4.22;;;2.20;;
74291;SDS011;62687;55.738;37.516;2023-07-30T10:29:19;6.30;;;2.90;;
74291;SDS011;62687;55.738;37.516;2023-07-30T10:32:04;4.53;;;1.67;;
74291;SDS011;62687;55.738;37.516;2023-07-30T10:34:48;4.15;;;2.40;;
74291;SDS011;62687;55.738;37.516;2023-07-30T10:37:32;4.47;;;2.17;;
74291;SDS011;62687;55.738;37.516;2023-07-30T10:40:16;4.00;;;2.05;;
74291;SDS011;62687;55.738;37.516;2023-07-30T10:43:00;7.20;;;3.60;;
74291;SDS011;62687;55.738;37.516;2023-07-30T10:45:49;6.70;;;2.42;;
74291;SDS011;62687;55.738;37.516;2023-07-30T10:48:34;3.55;;;2.25;;
74291;SDS011;62687;55.738;37.516;2023-07-30T10:51:19;8.40;;;4.15;;
74291;SDS011;62687;55.738;37.516;2023-07-30T10:54:05;7.22;;;2.72;;
74291;SDS011;62687;55.738;37.516;2023-07-30T10:56:49;5.30;;;2.25;;
74291;SDS011;62687;55.738;37.516;2023-07-30T10:59:35;8.00;;;3.65;;
74291;SDS011;62687;55.738;37.516;2023-07-30T11:02:21;13.65;;;6.15;;
74291;SDS011;62687;55.738;37.516;2023-07-30T11:05:12;8.27;;;4.07;;
74291;SDS011;62687;55.738;37.516;2023-07-30T11:07:56;6.00;;;3.40;;
74291;SDS011;62687;55.738;37.516;2023-07-30T11:10:42;9.50;;;4.22;;
74291;SDS011;62687;55.738;37.516;2023-07-30T11:13:26;8.77;;;4.20;;
74291;SDS011;62687;55.738;37.516;2023-07-30T11:16:10;12.07;;;6.43;;
74291;SDS011;62687;55.738;37.516;2023-07-30T11:18:54;7.57;;;3.47;;
74291;SDS011;62687;55.738;37.516;2023-07-30T11:21:43;11.25;;;4.80;;
74291;SDS011;62687;55.738;37.516;2023-07-30T11:24:34;7.38;;;3.35;;
74291;SDS011;62687;55.738;37.516;2023-07-30T11:27:18;11.27;;;4.20;;
74291;SDS011;62687;55.738;37.516;2023-07-30T11:30:02;4.50;;;1.70;;
74291;SDS011;62687;55.738;37.516;2023-07-30T11:32:46;4.43;;;2.70;;
74291;SDS011;62687;55.738;37.516;2023-07-30T11:35:30;3.47;;;1.33;;
74291;SDS011;62687;55.738;37.516;2023-07-30T11:38:14;3.90;;;1.63;;
74291;SDS011;62687;55.738;37.516;2023-07-30T11:40:58;6.22;;;1.75;;
74291;SDS011;62687;55.738;37.516;2023-07-30T11:43:43;7.40;;;2.40;;
74291;SDS011;62687;55.738;37.516;2023-07-30T11:46:27;6.15;;;2.33;;
74291;SDS011;62687;55.738;37.516;2023-07-30T11:49:15;7.53;;;2.13;;
74291;SDS011;62687;55.738;37.516;2023-07-30T11:52:05;5.43;;;1.98;;
74291;SDS011;62687;55.738;37.516;2023-07-30T11:54:59;4.65;;;2.10;;
74291;SDS011;62687;55.738;37.516;2023-07-30T11:57:42;6.15;;;2.17;;
74291;SDS011;62687;55.738;37.516;2023-07-30T12:00:26;4.82;;;1.63;;
74291;SDS011;62687;55.738;37.516;2023-07-30T12:03:10;7.22;;;1.92;;
74291;SDS011;62687;55.738;37.516;2023-07-30T12:05:58;2.40;;;1.50;;
74291;SDS011;62687;55.738;37.516;2023-07-30T12:08:42;3.75;;;1.40;;
74291;SDS011;62687;55.738;37.516;2023-07-30T12:11:25;4.13;;;1.98;;
74291;SDS011;62687;55.738;37.516;2023-07-30T12:14:09;4.18;;;1.58;;
74291;SDS011;62687;55.738;37.516;2023-07-30T12:16:54;4.25;;;1.90;;
74291;SDS011;62687;55.738;37.516;2023-07-30T12:19:37;4.63;;;1.65;;
74291;SDS011;62687;55.738;37.516;2023-07-30T12:22:21;3.08;;;1.45;;
74291;SDS011;62687;55.738;37.516;2023-07-30T12:25:05;4.45;;;1.75;;
74291;SDS011;62687;55.738;37.516;2023-07-30T12:27:49;2.55;;;1.55;;
74291;SDS011;62687;55.738;37.516;2023-07-30T12:30:33;8.73;;;2.15;;
74291;SDS011;62687;55.738;37.516;2023-07-30T12:33:19;2.63;;;1.50;;
74291;SDS011;62687;55.738;37.516;2023-07-30T12:36:03;4.25;;;1.40;;
74291;SDS011;62687;55.738;37.516;2023-07-30T12:38:47;2.83;;;1.50;;
74291;SDS011;62687;55.738;37.516;2023-07-30T12:41:31;3.80;;;1.60;;
74291;SDS011;62687;55.738;37.516;2023-07-30T12:44:15;3.08;;;1.70;;
74291;SDS011;62687;55.738;37.516;2023-07-30T12:46:59;3.47;;;1.98;;
74291;SDS011;62687;55.738;37.516;2023-07-30T12:49:43;2.97;;;1.52;;
74291;SDS011;62687;55.738;37.516;2023-07-30T12:52:27;2.95;;;1.23;;
74291;SDS011;62687;55.738;37.516;2023-07-30T12:55:11;3.42;;;1.60;;
74291;SDS011;62687;55.738;37.516;2023-07-30T12:57:55;6.47;;;1.75;;
74291;SDS011;62687;55.738;37.516;2023-07-30T13:00:39;3.17;;;1.40;;
74291;SDS011;62687;55.738;37.516;2023-07-30T13:03:23;7.25;;;1.98;;
74291;SDS011;62687;55.738;37.516;2023-07-30T13:06:07;3.35;;;1.73;;
74291;SDS011;62687;55.738;37.516;2023-07-30T13:08:51;2.50;;;1.30;;
74291;SDS011;62687;55.738;37.516;2023-07-30T13:14:20;3.50;;;1.92;;
74291;SDS011;62687;55.738;37.516;2023-07-30T13:17:04;3.55;;;1.42;;
74291;SDS011;62687;55.738;37.516;2023-07-30T13:19:48;3.47;;;1.70;;
74291;SDS011;62687;55.738;37.516;2023-07-30T13:22:32;3.90;;;1.70;;
74291;SDS011;62687;55.738;37.516;2023-07-30T13:25:16;3.10;;;1.80;;
74291;SDS011;62687;55.738;37.516;2023-07-30T13:28:00;4.15;;;1.73;;
74291;SDS011;62687;55.738;37.516;2023-07-30T13:30:44;2.40;;;1.23;;
74291;SDS011;62687;55.738;37.516;2023-07-30T13:33:28;2.88;;;1.60;;
74291;SDS011;62687;55.738;37.516;2023-07-30T13:36:12;2.42;;;1.30;;
74291;SDS011;62687;55.738;37.516;2023-07-30T13:38:56;3.80;;;1.42;;
74291;SDS011;62687;55.738;37.516;2023-07-30T13:41:40;4.68;;;1.70;;
74291;SDS011;62687;55.738;37.516;2023-07-30T13:44:24;3.72;;;1.67;;
74291;SDS011;62687;55.738;37.516;2023-07-30T13:47:08;4.40;;;1.88;;
74291;SDS011;62687;55.738;37.516;2023-07-30T13:49:52;2.55;;;1.40;;
74291;SDS011;62687;55.738;37.516;2023-07-30T13:52:38;3.47;;;1.23;;
74291;SDS011;62687;55.738;37.516;2023-07-30T13:55:21;5.65;;;2.25;;
74291;SDS011;62687;55.738;37.516;2023-07-30T13:58:06;3.15;;;1.70;;
74291;SDS011;62687;55.738;37.516;2023-07-30T14:00:50;2.72;;;1.42;;
74291;SDS011;62687;55.738;37.516;2023-07-30T14:03:37;3.60;;;1.40;;
74291;SDS011;62687;55.738;37.516;2023-07-30T14:06:21;3.38;;;1.20;;
74291;SDS011;62687;55.738;37.516;2023-07-30T14:09:05;2.85;;;1.25;;
74291;SDS011;62687;55.738;37.516;2023-07-30T14:11:49;3.50;;;1.35;;
74291;SDS011;62687;55.738;37.516;2023-07-30T14:14:34;7.85;;;2.25;;
74291;SDS011;62687;55.738;37.516;2023-07-30T14:17:18;3.17;;;1.65;;
74291;SDS011;62687;55.738;37.516;2023-07-30T14:20:02;2.85;;;1.20;;
74291;SDS011;62687;55.738;37.516;2023-07-30T14:22:46;3.83;;;1.30;;
74291;SDS011;62687;55.738;37.516;2023-07-30T14:25:30;5.32;;;1.48;;
74291;SDS011;62687;55.738;37.516;2023-07-30T14:28:14;2.65;;;2.08;;
74291;SDS011;62687;55.738;37.516;2023-07-30T14:30:58;5.18;;;2.08;;
74291;SDS011;62687;55.738;37.516;2023-07-30T14:33:42;3.90;;;1.75;;
74291;SDS011;62687;55.738;37.516;2023-07-30T14:36:26;2.13;;;1.33;;
74291;SDS011;62687;55.738;37.516;2023-07-30T14:39:10;3.20;;;1.38;;
74291;SDS011;62687;55.738;37.516;2023-07-30T14:41:54;1.77;;;1.10;;
74291;SDS011;62687;55.738;37.516;2023-07-30T14:44:38;2.30;;;1.05;;
74291;SDS011;62687;55.738;37.516;2023-07-30T14:47:22;2.10;;;1.23;;
74291;SDS011;62687;55.738;37.516;2023-07-30T14:50:06;5.80;;;1.25;;
74291;SDS011;62687;55.738;37.516;2023-07-30T14:52:50;4.28;;;1.23;;
74291;SDS011;62687;55.738;37.516;2023-07-30T14:58:18;3.20;;;1.20;;
74291;SDS011;62687;55.738;37.516;2023-07-30T15:01:02;5.70;;;2.42;;
74291;SDS011;62687;55.738;37.516;2023-07-30T15:03:46;5.90;;;1.92;;
74291;SDS011;62687;55.738;37.516;2023-07-30T15:06:30;2.28;;;1.05;;
74291;SDS011;62687;55.738;37.516;2023-07-30T15:09:14;2.13;;;0.90;;
74291;SDS011;62687;55.738;37.516;2023-07-30T15:11:59;3.20;;;1.10;;
74291;SDS011;62687;55.738;37.516;2023-07-30T15:14:42;4.28;;;1.40;;
74291;SDS011;62687;55.738;37.516;2023-07-30T15:17:26;3.65;;;2.00;;
74291;SDS011;62687;55.738;37.516;2023-07-30T15:20:10;2.88;;;1.63;;
74291;SDS011;62687;55.738;37.516;2023-07-30T15:25:38;2.75;;;1.02;;
74291;SDS011;62687;55.738;37.516;2023-07-30T15:28:22;3.08;;;1.10;;
74291;SDS011;62687;55.738;37.516;2023-07-30T15:31:06;4.63;;;1.60;;
74291;SDS011;62687;55.738;37.516;2023-07-30T15:36:36;2.60;;;1.25;;
74291;SDS011;62687;55.738;37.516;2023-07-30T15:39:20;2.25;;;1.00;;
74291;SDS011;62687;55.738;37.516;2023-07-30T15:42:05;3.65;;;1.50;;
74291;SDS011;62687;55.738;37.516;2023-07-30T15:44:49;7.63;;;1.88;;
74291;SDS011;62687;55.738;37.516;2023-07-30T15:47:33;3.15;;;1.13;;
74291;SDS011;62687;55.738;37.516;2023-07-30T15:50:17;4.75;;;1.50;;
74291;SDS011;62687;55.738;37.516;2023-07-30T15:53:01;4.28;;;1.40;;
74291;SDS011;62687;55.738;37.516;2023-07-30T15:55:46;3.08;;;1.13;;
74291;SDS011;62687;55.738;37.516;2023-07-30T15:58:31;3.47;;;1.35;;
74291;SDS011;62687;55.738;37.516;2023-07-30T16:01:15;2.03;;;1.17;;
74291;SDS011;62687;55.738;37.516;2023-07-30T16:03:59;4.53;;;1.45;;
74291;SDS011;62687;55.738;37.516;2023-07-30T16:06:35;2.55;;;1.33;;
74291;SDS011;62687;55.738;37.516;2023-07-30T16:09:19;3.47;;;2.08;;
74291;SDS011;62687;55.738;37.516;2023-07-30T16:12:04;4.80;;;2.30;;
74291;SDS011;62687;55.738;37.516;2023-07-30T16:14:50;4.43;;;1.60;;
74291;SDS011;62687;55.738;37.516;2023-07-30T16:17:34;5.72;;;2.55;;
74291;SDS011;62687;55.738;37.516;2023-07-30T16:20:19;3.50;;;2.17;;
74291;SDS011;62687;55.738;37.516;2023-07-30T16:23:04;4.78;;;2.17;;
74291;SDS011;62687;55.738;37.516;2023-07-30T16:25:48;3.05;;;1.30;;
74291;SDS011;62687;55.738;37.516;2023-07-30T16:28:33;3.92;;;1.70;;
74291;SDS011;62687;55.738;37.516;2023-07-30T16:31:17;3.00;;;1.50;;